Time;durP1;ratioP1;P1;durP2;ratioP2;P2;SDS_P1;SDS_P2;PMS_P1;PMS_P2;Temp;Humidity;BMP_temperature;BMP_pressure;BME280_temperature;BME280_humidity;BME280_pressure;Samples;Min_cycle;Max_cycle;Signal;HPM_P1;HPM_P2
2022/02/26 00:02:25;;;;;;;21.40;20.02;;;3.90;85.00;;;;;;5074274;28;20225;-72
2022/02/26 00:04:52;;;;;;;21.42;19.90;;;3.90;85.40;;;;;;5074194;28;20193;-72
2022/02/26 00:07:19;;;;;;;23.58;21.67;;;3.90;85.30;;;;;;5074182;28;20320;-72
2022/02/26 00:09:46;;;;;;;22.98;21.55;;;3.90;85.40;;;;;;5073875;28;20284;-72
2022/02/26 00:12:13;;;;;;;22.20;20.50;;;4.00;85.70;;;;;;5074032;28;20222;-72
2022/02/26 00:14:40;;;;;;;21.23;19.83;;;4.00;85.20;;;;;;5073999;28;20207;-72
2022/02/26 00:17:07;;;;;;;21.25;19.83;;;4.00;84.90;;;;;;5074142;28;20567;-72
2022/02/26 00:19:35;;;;;;;20.25;19.15;;;4.10;85.00;;;;;;5073705;28;20201;-72
2022/02/26 00:22:03;;;;;;;22.15;20.30;;;4.10;84.90;;;;;;5073951;28;20697;-72
2022/02/26 00:24:30;;;;;;;21.15;19.75;;;4.10;84.80;;;;;;5073867;28;20240;-72
2022/02/26 00:26:57;;;;;;;21.35;20.00;;;4.20;84.50;;;;;;5073983;28;20198;-72
2022/02/26 00:29:24;;;;;;;20.63;19.35;;;4.20;84.60;;;;;;5073654;28;20288;-72
2022/02/26 00:31:51;;;;;;;21.27;19.65;;;4.30;84.00;;;;;;5073577;28;20249;-72
2022/02/26 00:34:18;;;;;;;20.73;19.55;;;4.40;84.00;;;;;;5073756;28;20190;-72
2022/02/26 00:36:47;;;;;;;22.10;20.55;;;4.40;83.60;;;;;;5073467;28;20204;-72
2022/02/26 00:39:14;;;;;;;21.23;19.30;;;4.40;83.20;;;;;;5073479;28;20230;-71
2022/02/26 00:41:41;;;;;;;20.35;19.05;;;4.50;83.50;;;;;;5073281;28;20665;-72
2022/02/26 00:44:07;;;;;;;20.25;18.95;;;4.50;83.30;;;;;;5073350;28;20259;-72
2022/02/26 00:46:34;;;;;;;21.42;20.02;;;4.50;83.30;;;;;;5073479;28;20202;-72
2022/02/26 00:51:47;;;;;;;21.10;19.70;;;4.70;82.40;;;;;;5072984;28;20642;-72
2022/02/26 00:54:14;;;;;;;21.48;20.15;;;4.50;82.70;;;;;;5073216;28;20197;-72
2022/02/26 00:56:42;;;;;;;21.98;20.70;;;4.60;82.90;;;;;;5073268;28;20659;-71
2022/02/26 00:59:09;;;;;;;21.60;19.73;;;4.50;82.60;;;;;;5072924;28;20197;-72
2022/02/26 01:01:36;;;;;;;20.80;19.60;;;4.40;83.00;;;;;;5073050;28;20223;-72
2022/02/26 01:04:03;;;;;;;21.35;19.90;;;4.50;82.80;;;;;;5072989;28;20213;-71
2022/02/26 01:06:30;;;;;;;21.35;19.85;;;4.50;83.00;;;;;;5073152;28;20192;-71
2022/02/26 01:08:58;;;;;;;22.10;20.42;;;4.40;83.10;;;;;;5073118;28;20204;-71
2022/02/26 01:11:26;;;;;;;22.13;20.38;;;4.40;82.90;;;;;;5073027;28;20213;-71
2022/02/26 01:13:53;;;;;;;22.10;20.70;;;4.50;83.20;;;;;;5072903;28;20201;-71
2022/02/26 01:16:20;;;;;;;21.30;19.70;;;4.60;82.90;;;;;;5072902;28;20197;-71
2022/02/26 01:18:47;;;;;;;21.60;20.00;;;4.50;82.50;;;;;;5072951;28;20552;-71
2022/02/26 01:21:14;;;;;;;21.42;19.95;;;4.40;83.00;;;;;;5072667;28;20302;-71
2022/02/26 01:23:41;;;;;;;21.98;20.40;;;4.50;83.10;;;;;;5072809;28;20305;-71
2022/02/26 01:26:09;;;;;;;21.02;19.58;;;4.60;82.50;;;;;;5072692;28;20654;-71
2022/02/26 01:28:36;;;;;;;22.40;20.85;;;4.40;82.80;;;;;;5072773;28;20607;-71
2022/02/26 01:31:04;;;;;;;21.67;20.02;;;4.40;83.20;;;;;;5072709;28;20304;-71
2022/02/26 01:33:30;;;;;;;22.75;20.70;;;4.40;83.10;;;;;;5072682;28;20260;-71
2022/02/26 01:35:57;;;;;;;21.73;20.00;;;4.40;83.10;;;;;;5072680;28;20193;-71
2022/02/26 01:38:24;;;;;;;20.67;19.50;;;4.40;82.90;;;;;;5072446;28;20284;-71
2022/02/26 01:40:51;;;;;;;21.38;20.10;;;4.30;83.40;;;;;;5072438;28;20720;-71
2022/02/26 01:43:19;;;;;;;21.70;20.02;;;4.40;82.90;;;;;;5072568;28;20226;-71
2022/02/26 01:45:46;;;;;;;21.85;20.30;;;4.30;83.50;;;;;;5072566;28;20566;-71
2022/02/26 01:48:13;;;;;;;23.10;21.30;;;4.30;83.50;;;;;;5072572;28;20655;-71
2022/02/26 01:50:40;;;;;;;22.20;20.40;;;4.30;83.90;;;;;;5072307;28;20571;-71
2022/02/26 01:53:07;;;;;;;22.92;21.40;;;4.40;83.50;;;;;;5072465;28;20297;-71
2022/02/26 01:55:34;;;;;;;23.13;21.35;;;4.40;82.80;;;;;;5072459;28;20193;-72
2022/02/26 01:58:01;;;;;;;22.15;20.73;;;4.50;82.70;;;;;;5072420;28;20206;-71
2022/02/26 02:00:30;;;;;;;21.77;20.40;;;4.40;82.70;;;;;;5072096;28;20197;-72
2022/02/26 02:02:57;;;;;;;23.52;21.92;;;4.40;82.90;;;;;;5072496;28;20305;-71
2022/02/26 02:05:26;;;;;;;22.17;20.60;;;4.40;82.80;;;;;;5075218;28;20226;-71
2022/02/26 02:07:53;;;;;;;21.30;19.70;;;4.40;82.90;;;;;;5076480;28;20193;-72
2022/02/26 02:10:21;;;;;;;22.23;21.00;;;4.20;83.40;;;;;;5076394;28;20201;-71
2022/02/26 02:12:48;;;;;;;21.88;20.15;;;4.30;83.40;;;;;;5076401;28;20693;-71
2022/02/26 02:15:15;;;;;;;22.75;21.30;;;4.20;83.50;;;;;;5076399;28;20563;-72
2022/02/26 02:17:44;;;;;;;21.77;20.50;;;4.20;83.60;;;;;;5076358;28;20224;-72
2022/02/26 02:20:11;;;;;;;23.13;21.42;;;4.20;83.90;;;;;;5076116;28;20205;-72
2022/02/26 02:22:42;;;;;;;22.58;20.67;;;4.00;84.40;;;;;;5076265;28;20690;-72
2022/02/26 02:25:10;;;;;;;22.70;20.90;;;3.90;85.00;;;;;;5076139;28;20196;-72
2022/02/26 02:27:36;;;;;;;23.40;21.30;;;4.00;84.70;;;;;;5076132;28;20562;-72
2022/02/26 02:30:04;;;;;;;21.60;20.23;;;4.10;84.60;;;;;;5076009;28;20203;-72
2022/02/26 02:32:31;;;;;;;22.08;20.35;;;4.20;84.20;;;;;;5075755;28;20300;-71
2022/02/26 02:34:58;;;;;;;21.95;20.45;;;4.00;84.20;;;;;;5076070;28;20204;-71
2022/02/26 02:37:25;;;;;;;21.92;20.45;;;4.00;84.60;;;;;;5075886;28;20301;-71
2022/02/26 02:39:53;;;;;;;21.73;20.20;;;4.10;84.40;;;;;;5075981;28;20201;-71
2022/02/26 02:42:20;;;;;;;21.83;20.30;;;4.10;84.70;;;;;;5075932;28;20263;-71
2022/02/26 02:44:47;;;;;;;22.40;20.80;;;4.10;84.60;;;;;;5075807;28;20222;-71
2022/02/26 02:47:14;;;;;;;22.92;21.15;;;4.10;84.50;;;;;;5075836;28;20197;-71
2022/02/26 02:49:41;;;;;;;22.90;21.13;;;4.10;84.30;;;;;;5075467;28;20208;-72
2022/02/26 02:52:08;;;;;;;23.17;21.27;;;4.00;84.40;;;;;;5075626;28;20638;-72
2022/02/26 02:54:35;;;;;;;23.10;21.33;;;4.00;84.80;;;;;;5075606;28;20205;-72
2022/02/26 02:57:03;;;;;;;22.27;20.77;;;4.00;84.60;;;;;;5075423;28;20197;-72
2022/02/26 02:59:30;;;;;;;23.20;21.60;;;4.00;84.70;;;;;;5075311;28;20198;-72
2022/02/26 03:01:57;;;;;;;23.17;21.02;;;3.90;85.00;;;;;;5075519;28;20308;-72
2022/02/26 03:04:24;;;;;;;23.80;22.13;;;3.90;85.50;;;;;;5075340;28;20218;-72
2022/02/26 03:06:51;;;;;;;23.52;21.85;;;3.80;85.50;;;;;;5075408;28;20202;-72
2022/02/26 03:09:18;;;;;;;24.55;22.55;;;3.90;85.30;;;;;;5075297;28;20218;-71
2022/02/26 03:11:44;;;;;;;24.38;22.17;;;3.90;85.30;;;;;;5075341;28;20559;-71
2022/02/26 03:14:13;;;;;;;23.80;21.80;;;3.90;85.50;;;;;;5075326;28;20280;-72
2022/02/26 03:16:40;;;;;;;25.40;23.33;;;3.80;85.40;;;;;;5074674;28;20671;-71
2022/02/26 03:19:07;;;;;;;23.50;21.88;;;3.70;86.00;;;;;;5075034;28;20956;-72
2022/02/26 03:21:34;;;;;;;25.67;23.65;;;3.70;86.10;;;;;;5075193;28;20645;-72
2022/02/26 03:24:01;;;;;;;24.65;22.95;;;3.60;86.50;;;;;;5074944;28;20220;-71
2022/02/26 03:26:28;;;;;;;24.50;22.60;;;3.50;87.00;;;;;;5075037;28;20562;-71
2022/02/26 03:28:55;;;;;;;25.55;23.48;;;3.60;86.90;;;;;;5074975;28;20197;-71
2022/02/26 03:31:23;;;;;;;25.63;23.63;;;3.70;86.20;;;;;;5074628;28;20221;-71
2022/02/26 03:33:50;;;;;;;24.45;22.27;;;3.90;85.90;;;;;;5074926;28;20284;-71
2022/02/26 03:36:17;;;;;;;22.90;21.05;;;4.00;85.30;;;;;;5074894;28;20624;-71
2022/02/26 03:38:44;;;;;;;24.70;22.85;;;3.90;85.30;;;;;;5074620;28;20230;-71
2022/02/26 03:41:13;;;;;;;25.55;23.45;;;4.00;85.20;;;;;;5074509;28;20253;-71
2022/02/26 03:43:40;;;;;;;26.63;24.10;;;4.00;85.20;;;;;;5074748;28;20224;-72
2022/02/26 03:46:07;;;;;;;24.40;22.20;;;3.90;85.30;;;;;;5074621;28;20287;-71
2022/02/26 03:48:36;;;;;;;23.70;21.70;;;3.90;85.10;;;;;;5074664;28;20291;-72
2022/02/26 03:51:05;;;;;;;25.50;23.05;;;3.90;85.40;;;;;;5074333;28;20714;-72
2022/02/26 03:53:33;;;;;;;24.15;22.45;;;3.80;85.70;;;;;;5074527;28;20204;-71
2022/02/26 03:56:00;;;;;;;25.45;23.40;;;3.80;86.10;;;;;;5074510;28;20201;-71
2022/02/26 03:58:27;;;;;;;24.58;22.75;;;3.80;86.20;;;;;;5074346;28;20205;-71
2022/02/26 04:00:54;;;;;;;25.88;23.98;;;3.70;86.80;;;;;;5074260;28;20217;-71
2022/02/26 04:03:21;;;;;;;26.10;24.25;;;3.60;87.50;;;;;;5074404;28;20711;-71
2022/02/26 04:05:49;;;;;;;26.55;23.98;;;3.60;90.60;;;;;;5074315;28;20655;-71
2022/02/26 04:08:16;;;;;;;25.52;23.27;;;3.60;88.40;;;;;;5074306;28;20210;-71
2022/02/26 04:10:43;;;;;;;26.13;23.95;;;3.60;88.30;;;;;;5074076;28;20615;-71
2022/02/26 04:13:09;;;;;;;26.02;23.80;;;3.60;88.30;;;;;;5074047;28;20678;-72
2022/02/26 04:15:36;;;;;;;25.30;23.40;;;3.50;88.00;;;;;;5074219;28;20234;-72
2022/02/26 04:18:03;;;;;;;28.75;26.55;;;3.50;88.50;;;;;;5074066;28;20317;-71
2022/02/26 04:20:30;;;;;;;25.35;23.45;;;3.60;87.80;;;;;;5073821;28;20204;-71
2022/02/26 04:22:59;;;;;;;26.95;24.60;;;3.70;87.20;;;;;;5074184;28;20204;-72
2022/02/26 04:25:26;;;;;;;26.33;23.92;;;3.60;87.20;;;;;;5073665;28;20570;-72
2022/02/26 04:27:53;;;;;;;26.20;24.00;;;3.70;87.20;;;;;;5073008;28;20254;-71
2022/02/26 04:30:20;;;;;;;25.77;23.50;;;3.70;86.90;;;;;;5073645;28;20201;-71
2022/02/26 04:32:46;;;;;;;27.02;24.60;;;3.70;86.80;;;;;;5073438;28;20221;-72
2022/02/26 04:35:13;;;;;;;26.60;24.15;;;3.70;86.80;;;;;;5073679;28;20277;-71
2022/02/26 04:37:41;;;;;;;24.90;22.95;;;3.70;87.10;;;;;;5073526;28;20673;-72
2022/02/26 04:40:11;;;;;;;25.60;23.40;;;3.70;86.70;;;;;;5073720;28;20197;-72
2022/02/26 04:42:39;;;;;;;27.17;24.67;;;3.70;86.70;;;;;;5073790;28;20251;-71
2022/02/26 04:45:07;;;;;;;26.70;24.40;;;3.70;86.40;;;;;;5073556;28;20228;-72
2022/02/26 04:47:34;;;;;;;25.80;23.58;;;3.70;86.40;;;;;;5073422;28;20286;-71
2022/02/26 04:50:00;;;;;;;27.27;24.65;;;3.70;86.90;;;;;;5073278;28;20196;-72
2022/02/26 04:52:27;;;;;;;24.73;22.88;;;3.70;87.00;;;;;;5073219;28;20221;-71
2022/02/26 04:54:54;;;;;;;25.67;23.48;;;3.70;87.20;;;;;;5073628;28;20288;-72
2022/02/26 04:57:25;;;;;;;27.90;25.58;;;3.70;87.10;;;;;;5073271;28;20290;-71
2022/02/26 04:59:52;;;;;;;26.73;24.20;;;3.70;86.70;;;;;;5073206;28;20728;-71
2022/02/26 05:02:19;;;;;;;26.77;24.83;;;3.70;86.60;;;;;;5073245;28;20340;-72
2022/02/26 05:04:46;;;;;;;26.98;24.77;;;3.70;86.70;;;;;;5073121;28;20224;-71
2022/02/26 05:07:15;;;;;;;27.08;24.88;;;3.70;86.70;;;;;;5073035;28;20202;-72
2022/02/26 05:09:42;;;;;;;25.73;23.73;;;3.70;86.70;;;;;;5072819;28;20255;-72
2022/02/26 05:12:10;;;;;;;26.30;24.02;;;3.90;86.40;;;;;;5072925;28;20253;-71
2022/02/26 05:14:38;;;;;;;25.92;23.92;;;3.80;86.20;;;;;;5073008;28;20285;-71
2022/02/26 05:17:05;;;;;;;27.13;24.73;;;3.90;86.00;;;;;;5072975;28;20280;-72
2022/02/26 05:19:32;;;;;;;25.40;23.38;;;4.00;85.50;;;;;;5072698;28;20248;-72
2022/02/26 05:21:59;;;;;;;26.70;24.58;;;3.90;85.40;;;;;;5073014;28;20635;-72
2022/02/26 05:24:26;;;;;;;26.27;24.20;;;4.00;85.30;;;;;;5072697;28;20563;-72
2022/02/26 05:26:53;;;;;;;25.52;23.33;;;3.90;85.00;;;;;;5072738;28;20201;-72
2022/02/26 05:29:20;;;;;;;26.17;23.88;;;3.90;85.10;;;;;;5072611;28;20609;-71
2022/02/26 05:31:49;;;;;;;26.17;23.90;;;3.90;85.30;;;;;;5072510;28;20309;-72
2022/02/26 05:34:17;;;;;;;25.80;23.55;;;3.90;85.00;;;;;;5072684;28;20555;-71
2022/02/26 05:36:44;;;;;;;27.02;24.98;;;3.90;84.80;;;;;;5072527;28;20193;-72
2022/02/26 05:39:11;;;;;;;26.23;24.05;;;3.80;85.30;;;;;;5072359;28;20197;-72
2022/02/26 05:41:39;;;;;;;27.17;24.88;;;3.70;85.80;;;;;;5072652;28;20219;-71
2022/02/26 05:44:06;;;;;;;25.60;23.50;;;3.70;85.60;;;;;;5072580;28;20228;-71
2022/02/26 05:46:33;;;;;;;25.33;23.67;;;3.60;86.30;;;;;;5072694;28;20197;-71
2022/02/26 05:49:02;;;;;;;26.27;24.13;;;3.50;86.40;;;;;;5072446;28;20565;-71
2022/02/26 05:51:28;;;;;;;26.15;24.25;;;3.60;86.40;;;;;;5072529;28;20216;-71
2022/02/26 05:53:55;;;;;;;26.65;24.52;;;3.60;86.40;;;;;;5072442;28;20220;-71
2022/02/26 05:56:22;;;;;;;27.70;25.00;;;3.60;86.60;;;;;;5072562;28;20289;-72
2022/02/26 05:58:49;;;;;;;33.88;26.38;;;3.60;86.30;;;;;;5072410;28;20197;-71
2022/02/26 06:01:16;;;;;;;28.45;26.00;;;3.60;86.50;;;;;;5072215;28;20239;-72
2022/02/26 06:03:43;;;;;;;28.58;26.08;;;3.60;86.60;;;;;;5072531;28;20209;-71
2022/02/26 06:06:12;;;;;;;29.50;25.85;;;3.70;86.50;;;;;;5072285;28;20220;-71
2022/02/26 06:08:39;;;;;;;26.95;24.45;;;3.70;86.40;;;;;;5072365;28;20193;-72
2022/02/26 06:11:05;;;;;;;26.48;24.38;;;3.80;86.40;;;;;;5072149;28;20213;-72
2022/02/26 06:13:32;;;;;;;28.48;26.20;;;3.70;86.10;;;;;;5072290;28;20204;-72
2022/02/26 06:15:59;;;;;;;29.25;26.63;;;3.60;86.50;;;;;;5072048;28;20738;-72
2022/02/26 06:18:26;;;;;;;29.10;26.80;;;3.70;86.40;;;;;;5072098;28;20224;-71
2022/02/26 06:20:53;;;;;;;27.63;25.25;;;3.60;86.70;;;;;;5071911;28;20217;-72
2022/02/26 06:23:22;;;;;;;27.10;24.58;;;3.60;86.70;;;;;;5072350;28;20201;-71
2022/02/26 06:25:49;;;;;;;26.95;24.90;;;3.80;86.50;;;;;;5072122;28;20694;-72
2022/02/26 06:28:16;;;;;;;27.00;24.92;;;3.80;85.60;;;;;;5072133;28;20205;-71
2022/02/26 06:30:42;;;;;;;31.40;28.08;;;3.70;85.70;;;;;;5071786;28;20196;-72
2022/02/26 06:33:12;;;;;;;28.90;26.20;;;3.70;86.20;;;;;;5071988;28;20202;-72
2022/02/26 06:35:39;;;;;;;28.92;26.40;;;3.80;85.80;;;;;;5072201;28;20194;-72
2022/02/26 06:38:06;;;;;;;27.52;25.33;;;3.70;85.90;;;;;;5071882;28;20292;-72
2022/02/26 06:40:34;;;;;;;28.13;25.65;;;3.60;86.40;;;;;;5071848;28;20202;-71
2022/02/26 06:43:01;;;;;;;28.77;26.25;;;3.60;86.70;;;;;;5071904;28;20288;-72
2022/02/26 06:45:28;;;;;;;27.90;25.05;;;3.50;86.90;;;;;;5071973;28;20641;-72
2022/02/26 06:47:55;;;;;;;27.17;25.02;;;3.70;86.00;;;;;;5071978;28;20284;-72
2022/02/26 06:50:22;;;;;;;29.98;26.67;;;3.70;86.10;;;;;;5072528;28;20243;-71
2022/02/26 06:52:49;;;;;;;31.70;28.77;;;3.70;86.50;;;;;;5075538;28;20229;-72
2022/02/26 06:55:19;;;;;;;29.63;27.40;;;3.90;85.80;;;;;;5075669;28;20285;-72
2022/02/26 06:57:47;;;;;;;28.38;25.95;;;3.90;85.80;;;;;;5075496;28;20231;-72
2022/02/26 07:00:17;;;;;;;28.98;26.67;;;3.90;85.20;;;;;;5075370;28;20206;-72
2022/02/26 07:02:43;;;;;;;27.85;25.30;;;4.00;85.30;;;;;;5075432;28;20217;-72
2022/02/26 07:05:10;;;;;;;27.52;25.17;;;4.10;85.20;;;;;;5075357;28;20232;-72
2022/02/26 07:07:37;;;;;;;27.67;24.98;;;4.20;84.90;;;;;;5075473;28;20200;-72
2022/02/26 07:10:05;;;;;;;27.08;24.98;;;4.30;84.20;;;;;;5075097;28;20282;-72
2022/02/26 07:12:32;;;;;;;28.63;26.48;;;4.20;84.10;;;;;;5075293;28;20217;-72
2022/02/26 07:15:00;;;;;;;27.80;25.20;;;4.00;84.30;;;;;;5075463;28;20237;-71
2022/02/26 07:17:27;;;;;;;29.25;26.95;;;4.10;84.70;;;;;;5075143;28;20203;-71
2022/02/26 07:19:54;;;;;;;28.40;26.08;;;4.10;84.80;;;;;;5075020;28;20725;-71
2022/02/26 07:22:21;;;;;;;27.80;25.02;;;4.00;84.70;;;;;;5075015;28;20219;-72
2022/02/26 07:24:48;;;;;;;28.58;25.92;;;4.10;85.20;;;;;;5074990;28;20258;-72
2022/02/26 07:27:16;;;;;;;28.73;26.48;;;4.10;84.70;;;;;;5075083;28;20197;-72
2022/02/26 07:29:43;;;;;;;27.42;25.02;;;4.00;85.00;;;;;;5074829;28;20202;-72
2022/02/26 07:32:12;;;;;;;30.80;27.95;;;4.00;84.40;;;;;;5074840;28;20304;-72
2022/02/26 07:34:39;;;;;;;28.40;26.13;;;4.10;85.00;;;;;;5074944;28;20211;-72
2022/02/26 07:37:06;;;;;;;27.77;25.38;;;3.90;84.90;;;;;;5074612;28;20205;-72
2022/02/26 07:39:33;;;;;;;27.55;25.35;;;4.00;86.20;;;;;;5074699;28;20198;-71
2022/02/26 07:42:00;;;;;;;27.17;25.08;;;4.10;85.60;;;;;;5074813;28;20308;-72
2022/02/26 07:44:27;;;;;;;29.73;26.80;;;3.90;85.10;;;;;;5074630;28;20204;-72
2022/02/26 07:46:54;;;;;;;27.85;25.58;;;3.90;85.50;;;;;;5074789;28;20198;-71
2022/02/26 07:49:22;;;;;;;30.85;27.75;;;3.90;85.30;;;;;;5074469;28;20670;-71
2022/02/26 07:51:49;;;;;;;27.38;25.17;;;4.00;85.20;;;;;;5074844;28;20217;-71
2022/02/26 07:54:17;;;;;;;29.17;26.70;;;4.10;85.50;;;;;;5074576;28;20228;-72
2022/02/26 07:56:44;;;;;;;27.42;25.42;;;4.00;84.70;;;;;;5074430;28;20221;-71
2022/02/26 07:59:11;;;;;;;30.02;27.73;;;4.20;84.90;;;;;;5074609;28;20202;-72
2022/02/26 08:01:38;;;;;;;28.80;26.27;;;4.30;84.00;;;;;;5074493;28;20220;-72
2022/02/26 08:04:07;;;;;;;29.52;26.92;;;4.50;83.70;;;;;;5074463;28;20728;-71
2022/02/26 08:06:35;;;;;;;29.08;26.48;;;4.60;83.00;;;;;;5074267;28;20218;-71
2022/02/26 08:09:02;;;;;;;28.50;26.45;;;4.80;82.80;;;;;;5074234;28;20205;-72
2022/02/26 08:11:31;;;;;;;28.42;25.90;;;4.90;81.90;;;;;;5074080;28;20222;-72
2022/02/26 08:13:58;;;;;;;30.13;27.40;;;4.90;81.60;;;;;;5074037;28;20667;-72
2022/02/26 08:16:26;;;;;;;32.13;29.20;;;4.70;81.20;;;;;;5074158;28;20296;-72
2022/02/26 08:18:53;;;;;;;29.98;27.08;;;4.50;82.30;;;;;;5073823;28;20209;-72
2022/02/26 08:21:21;;;;;;;29.20;26.58;;;4.60;82.10;;;;;;5073690;28;20283;-72
2022/02/26 08:23:50;;;;;;;29.52;27.02;;;4.60;81.30;;;;;;5073955;28;20202;-72
2022/02/26 08:26:17;;;;;;;30.40;27.50;;;4.60;81.30;;;;;;5073760;28;20229;-72
2022/02/26 08:28:44;;;;;;;29.70;27.30;;;4.70;81.00;;;;;;5073645;28;20202;-72
2022/02/26 08:31:11;;;;;;;29.52;27.08;;;4.80;80.50;;;;;;5073519;28;20223;-71
2022/02/26 08:33:38;;;;;;;29.40;27.02;;;4.80;80.20;;;;;;5073473;28;20209;-72
2022/02/26 08:36:05;;;;;;;29.92;26.95;;;4.70;80.70;;;;;;5073664;28;20260;-72
2022/02/26 08:38:32;;;;;;;29.23;27.13;;;4.90;80.90;;;;;;5073328;28;20199;-71
2022/02/26 08:41:01;;;;;;;29.60;27.10;;;5.20;80.00;;;;;;5073319;28;20229;-72
2022/02/26 08:43:28;;;;;;;30.88;28.38;;;5.10;78.90;;;;;;5073698;28;20205;-71
2022/02/26 08:45:54;;;;;;;30.05;27.40;;;5.20;78.40;;;;;;5073366;28;20253;-72
2022/02/26 08:48:21;;;;;;;30.13;27.25;;;5.30;78.40;;;;;;5073282;28;20205;-72
2022/02/26 08:50:48;;;;;;;29.70;27.02;;;5.60;77.80;;;;;;5073238;28;20219;-71
2022/02/26 08:53:18;;;;;;;30.10;27.05;;;5.70;77.60;;;;;;5073289;28;20217;-72
2022/02/26 08:55:45;;;;;;;29.40;26.73;;;5.80;76.60;;;;;;5073402;28;20585;-71
2022/02/26 08:58:14;;;;;;;28.75;26.05;;;6.00;76.30;;;;;;5073216;28;20293;-71
2022/02/26 09:00:40;;;;;;;29.70;27.52;;;6.10;75.30;;;;;;5073037;28;20223;-71
2022/02/26 09:03:07;;;;;;;28.20;26.17;;;6.10;74.50;;;;;;5073314;28;20203;-71
2022/02/26 09:05:34;;;;;;;30.98;27.35;;;6.10;73.70;;;;;;5073202;28;20222;-72
2022/02/26 09:08:01;;;;;;;28.67;26.40;;;6.30;72.90;;;;;;5073178;28;20193;-72
2022/02/26 09:10:28;;;;;;;27.75;25.23;;;6.40;72.10;;;;;;5072890;28;20203;-72
2022/02/26 09:12:55;;;;;;;29.40;27.10;;;6.30;71.30;;;;;;5072535;28;20362;-72
2022/02/26 09:15:23;;;;;;;27.60;25.20;;;6.30;71.10;;;;;;5072755;28;20678;-72
2022/02/26 09:17:50;;;;;;;30.80;28.45;;;6.60;70.10;;;;;;5072990;28;20230;-72
2022/02/26 09:20:17;;;;;;;28.52;26.25;;;6.50;70.70;;;;;;5072616;28;20660;-72
2022/02/26 09:22:44;;;;;;;28.00;25.85;;;6.50;71.60;;;;;;5072753;28;20299;-72
2022/02/26 09:25:12;;;;;;;29.52;27.05;;;6.40;71.70;;;;;;5072645;28;20214;-72
2022/02/26 09:27:40;;;;;;;28.00;25.48;;;6.50;71.40;;;;;;5072623;28;20221;-72
2022/02/26 09:30:08;;;;;;;27.17;25.27;;;6.40;69.30;;;;;;5072483;28;20247;-72
2022/02/26 09:32:37;;;;;;;28.15;26.17;;;6.50;69.20;;;;;;5072647;28;20306;-72
2022/02/26 09:35:04;;;;;;;29.83;27.48;;;6.60;67.90;;;;;;5072720;28;20716;-72
2022/02/26 09:37:31;;;;;;;28.10;25.83;;;6.60;67.10;;;;;;5072545;28;20204;-72
2022/02/26 09:39:59;;;;;;;25.27;23.63;;;6.50;68.10;;;;;;5072487;28;20242;-72
2022/02/26 09:42:27;;;;;;;25.67;23.75;;;6.40;67.90;;;;;;5072661;28;20229;-71
2022/02/26 09:44:54;;;;;;;26.25;24.25;;;6.40;66.20;;;;;;5072738;28;20615;-72
2022/02/26 09:47:20;;;;;;;27.05;24.95;;;6.30;67.30;;;;;;5072541;28;20229;-72
2022/02/26 09:49:49;;;;;;;25.27;23.35;;;6.30;65.90;;;;;;5072260;28;20199;-72
2022/02/26 09:52:18;;;;;;;25.55;23.65;;;6.40;66.20;;;;;;5072599;28;20216;-72
2022/02/26 09:54:47;;;;;;;25.23;23.45;;;6.60;65.60;;;;;;5072338;28;20212;-72
2022/02/26 09:57:16;;;;;;;27.35;25.23;;;6.80;64.90;;;;;;5072628;28;20283;-71
2022/02/26 09:59:44;;;;;;;27.45;25.13;;;6.90;66.00;;;;;;5072195;28;20564;-72
2022/02/26 10:02:12;;;;;;;27.35;25.20;;;7.40;65.60;;;;;;5072351;28;20226;-72
2022/02/26 10:04:52;;;;;;;27.35;25.02;;;7.90;64.80;;;;;;5072477;28;20203;-72
2022/02/26 10:07:22;;;;;;;27.10;25.20;;;8.10;63.30;;;;;;5072272;28;20714;-72
2022/02/26 10:09:50;;;;;;;26.30;24.60;;;7.90;60.90;;;;;;5072205;28;20203;-72
2022/02/26 10:12:22;;;;;;;23.95;22.23;;;7.70;59.20;;;;;;5072279;28;20263;-72
2022/02/26 10:14:50;;;;;;;22.33;21.02;;;7.80;57.60;;;;;;5072280;28;20199;-72
2022/02/26 10:17:29;;;;;;;24.25;22.70;;;8.10;55.10;;;;;;5072328;28;20250;-72
2022/02/26 10:20:06;;;;;;;22.77;21.15;;;8.20;53.20;;;;;;5072068;28;20234;-72
2022/02/26 10:22:37;;;;;;;22.55;21.08;;;8.20;53.20;;;;;;5072331;28;20216;-72
2022/02/26 10:25:09;;;;;;;22.77;21.30;;;8.20;52.40;;;;;;5072676;28;20196;-72
2022/02/26 10:27:40;;;;;;;23.13;21.52;;;8.10;52.70;;;;;;5076208;28;20302;-72
2022/02/26 10:30:08;;;;;;;22.10;20.90;;;8.00;52.40;;;;;;5075963;28;20192;-72
2022/02/26 10:32:35;;;;;;;23.83;22.52;;;7.90;50.90;;;;;;5075847;28;20225;-72
2022/02/26 10:35:05;;;;;;;23.45;21.88;;;7.60;51.70;;;;;;5076139;28;20197;-72
2022/02/26 10:37:32;;;;;;;22.35;20.73;;;7.40;52.40;;;;;;5075905;28;20199;-71
2022/02/26 10:40:01;;;;;;;22.58;20.85;;;7.30;52.70;;;;;;5075799;28;20300;-71
2022/02/26 10:42:30;;;;;;;23.63;22.05;;;7.20;52.80;;;;;;5075712;28;20693;-72
2022/02/26 10:45:03;;;;;;;23.80;22.08;;;7.20;53.00;;;;;;5075790;28;20238;-72
2022/02/26 10:47:32;;;;;;;23.48;22.02;;;7.40;52.80;;;;;;5075687;28;20553;-71
2022/02/26 10:49:59;;;;;;;23.70;22.00;;;7.40;53.60;;;;;;5075497;28;20234;-72
2022/02/26 10:52:31;;;;;;;22.90;21.30;;;7.40;53.70;;;;;;5075604;28;20222;-72
2022/02/26 10:55:00;;;;;;;22.30;20.92;;;7.40;53.80;;;;;;5075689;28;20282;-72
2022/02/26 10:57:32;;;;;;;23.60;21.88;;;7.40;53.50;;;;;;5075427;28;20588;-72
2022/02/26 10:59:59;;;;;;;24.65;22.92;;;7.40;54.30;;;;;;5075565;28;20565;-72
2022/02/26 11:02:26;;;;;;;24.02;22.30;;;7.80;54.00;;;;;;5075703;28;20281;-72
2022/02/26 11:04:55;;;;;;;23.75;22.05;;;7.90;53.10;;;;;;5075630;28;20243;-71
2022/02/26 11:07:23;;;;;;;24.33;22.27;;;7.90;52.60;;;;;;5075383;28;20275;-72
2022/02/26 11:09:52;;;;;;;24.08;22.48;;;8.00;53.70;;;;;;5075387;28;20304;-72
2022/02/26 11:12:24;;;;;;;23.45;21.73;;;7.90;57.00;;;;;;5075528;28;20760;-72
2022/02/26 11:14:57;;;;;;;26.10;24.33;;;7.90;53.90;;;;;;5075474;28;20243;-72
2022/02/26 11:17:25;;;;;;;24.00;22.25;;;7.60;54.80;;;;;;5075605;28;20200;-71
2022/02/26 11:19:57;;;;;;;23.27;21.58;;;7.50;56.10;;;;;;5075269;28;20295;-72
2022/02/26 11:22:25;;;;;;;23.35;22.02;;;7.50;56.10;;;;;;5075261;28;20271;-72
2022/02/26 11:24:53;;;;;;;25.55;23.25;;;7.40;56.50;;;;;;5075111;28;20218;-71
2022/02/26 11:27:24;;;;;;;23.92;22.10;;;7.30;56.90;;;;;;5075151;28;20220;-71
2022/02/26 11:29:51;;;;;;;24.45;22.85;;;7.20;56.20;;;;;;5074773;28;20203;-72
2022/02/26 11:32:21;;;;;;;25.50;22.33;;;7.20;57.00;;;;;;5074981;28;20218;-72
2022/02/26 11:34:49;;;;;;;23.27;21.52;;;7.10;57.20;;;;;;5074988;28;20235;-72
2022/02/26 11:37:18;;;;;;;25.20;23.05;;;7.00;58.30;;;;;;5074343;28;20235;-72
2022/02/26 11:39:47;;;;;;;26.20;24.10;;;7.00;58.70;;;;;;5074726;28;20661;-71
2022/02/26 11:42:28;;;;;;;25.00;22.85;;;7.10;57.90;;;;;;5074866;28;20215;-72
2022/02/26 11:45:00;;;;;;;25.13;23.15;;;7.20;57.10;;;;;;5074974;28;20293;-72
2022/02/26 11:47:39;;;;;;;22.55;21.10;;;7.00;57.20;;;;;;5074534;28;20716;-72
2022/02/26 11:50:09;;;;;;;23.05;21.33;;;6.90;56.20;;;;;;5074570;28;20242;-72
2022/02/26 11:52:38;;;;;;;23.50;21.80;;;7.20;54.50;;;;;;5074464;28;20580;-71
2022/02/26 11:55:28;;;;;;;23.65;21.67;;;7.20;53.00;;;;;;5074675;28;20212;-72
2022/02/26 11:57:57;;;;;;;24.20;22.65;;;7.20;53.40;;;;;;5074471;28;20194;-72
2022/02/26 12:00:25;;;;;;;24.88;23.23;;;7.20;53.60;;;;;;5074379;28;20295;-71
2022/02/26 12:03:33;;;;;;;25.42;23.83;;;7.30;55.20;;;;;;5074413;28;20693;-72
2022/02/26 12:06:29;;;;;;;23.25;21.85;;;7.00;55.00;;;;;;4992826;28;20324;-72
2022/02/26 12:08:59;;;;;;;23.80;22.20;;;6.90;56.00;;;;;;4993039;28;20214;-72
2022/02/26 12:11:35;;;;;;;23.75;21.67;;;7.30;55.50;;;;;;5051098;28;20219;-71
2022/02/26 12:14:04;;;;;;;23.10;21.50;;;7.30;55.40;;;;;;5074104;28;20210;-72
2022/02/26 12:16:39;;;;;;;23.15;21.52;;;7.50;54.40;;;;;;5074286;28;20195;-72
2022/02/26 12:19:10;;;;;;;23.88;22.00;;;7.60;54.10;;;;;;5074074;28;20205;-72
2022/02/26 12:21:43;;;;;;;23.63;21.60;;;7.70;54.20;;;;;;5074230;28;20221;-72
2022/02/26 12:24:15;;;;;;;22.88;21.40;;;7.70;53.30;;;;;;5073988;28;20200;-72
2022/02/26 12:26:49;;;;;;;23.30;21.52;;;7.60;53.40;;;;;;5073859;28;20306;-72
2022/02/26 12:29:54;;;;;;;23.05;21.40;;;7.80;54.00;;;;;;5073802;28;20199;-72
2022/02/26 12:32:23;;;;;;;23.40;21.67;;;8.10;52.20;;;;;;5073822;28;20700;-72
2022/02/26 12:35:01;;;;;;;23.70;21.83;;;8.20;51.80;;;;;;5073826;28;20203;-71
2022/02/26 12:37:30;;;;;;;23.88;22.05;;;8.20;52.40;;;;;;5073535;28;20670;-72
2022/02/26 12:39:59;;;;;;;23.77;21.83;;;8.20;52.30;;;;;;5073740;28;20197;-71
2022/02/26 12:42:28;;;;;;;22.67;20.90;;;8.30;52.60;;;;;;5073797;28;20640;-71
2022/02/26 12:44:57;;;;;;;23.80;22.08;;;8.20;52.10;;;;;;5073730;28;20288;-72